Time;durP1;ratioP1;P1;durP2;ratioP2;P2;SDS_P1;SDS_P2;PMS_P1;PMS_P2;Temp;Humidity;BMP_temperature;BMP_pressure;BME280_temperature;BME280_humidity;BME280_pressure;Samples;Min_cycle;Max_cycle;Signal;HPM_P1;HPM_P2
2023/10/12 00:02:13;;;;;;;1.40;1.00;;;20.90;96.30;;;;;;5043773;28;20494;-82
2023/10/12 00:04:43;;;;;;;1.47;0.90;;;20.90;96.20;;;;;;5054764;28;20482;-81
2023/10/12 00:07:15;;;;;;;1.50;0.90;;;20.90;96.10;;;;;;5038899;28;20549;-81
2023/10/12 00:09:47;;;;;;;1.43;0.90;;;20.90;96.30;;;;;;5051214;28;20459;-81
2023/10/12 00:12:14;;;;;;;1.50;1.00;;;20.90;96.30;;;;;;5049864;28;20492;-82
2023/10/12 00:14:41;;;;;;;1.43;0.90;;;20.90;96.20;;;;;;5058599;28;20454;-81
2023/10/12 00:17:08;;;;;;;1.40;0.90;;;20.80;96.30;;;;;;5048744;28;20475;-80
2023/10/12 00:19:38;;;;;;;1.43;0.90;;;20.80;96.20;;;;;;5056744;28;20504;-83
2023/10/12 00:22:11;;;;;;;1.50;0.90;;;20.80;96.10;;;;;;5047244;28;20486;-82
2023/10/12 00:24:39;;;;;;;1.50;0.90;;;20.80;95.90;;;;;;5051796;28;20504;-81
2023/10/12 00:27:08;;;;;;;1.47;0.90;;;20.80;95.90;;;;;;5041710;28;20482;-81
2023/10/12 00:29:35;;;;;;;1.43;0.90;;;20.80;96.10;;;;;;5054261;28;20485;-81
2023/10/12 00:32:05;;;;;;;1.43;0.90;;;20.80;96.00;;;;;;5042445;28;20852;-82
2023/10/12 00:34:35;;;;;;;1.43;0.90;;;20.80;96.10;;;;;;5049533;28;20465;-81
2023/10/12 00:37:03;;;;;;;1.47;0.90;;;20.80;96.00;;;;;;5040712;28;20472;-82
2023/10/12 00:39:44;;;;;;;1.47;0.90;;;20.70;96.20;;;;;;5053152;28;20523;-82
2023/10/12 00:42:16;;;;;;;1.50;0.90;;;20.70;96.10;;;;;;5041691;28;20996;-82
2023/10/12 00:44:46;;;;;;;1.47;0.90;;;20.70;95.90;;;;;;5047993;28;20474;-82
2023/10/12 00:47:19;;;;;;;1.47;0.90;;;20.60;96.00;;;;;;5043353;28;20479;-81
2023/10/12 00:49:48;;;;;;;1.47;0.90;;;20.60;96.10;;;;;;5058788;28;20586;-84
2023/10/12 00:52:23;;;;;;;1.43;0.90;;;20.60;96.20;;;;;;5040498;28;20503;-82
2023/10/12 00:54:56;;;;;;;1.50;1.00;;;20.60;96.30;;;;;;5054870;28;20469;-82
2023/10/12 00:57:24;;;;;;;1.50;0.90;;;20.60;96.20;;;;;;5048359;28;20594;-82
2023/10/12 00:59:52;;;;;;;1.47;0.90;;;20.50;96.20;;;;;;5060304;28;20462;-83
2023/10/12 01:02:24;;;;;;;1.47;0.90;;;20.50;96.20;;;;;;5050628;28;20645;-82
2023/10/12 01:04:53;;;;;;;1.47;0.90;;;20.50;96.60;;;;;;5058345;28;20506;-82
2023/10/12 01:07:25;;;;;;;1.47;0.90;;;20.50;96.50;;;;;;5048765;28;20593;-83
2023/10/12 01:09:54;;;;;;;1.50;1.00;;;20.40;96.30;;;;;;5052417;28;20467;-82
2023/10/12 01:12:30;;;;;;;1.43;0.90;;;20.40;96.30;;;;;;5042554;28;20546;-83
2023/10/12 01:14:59;;;;;;;1.47;0.90;;;20.40;96.40;;;;;;5062916;28;20480;-82
2023/10/12 01:17:29;;;;;;;1.47;1.00;;;20.40;96.40;;;;;;5039851;28;20494;-82
2023/10/12 01:19:56;;;;;;;1.47;0.90;;;20.40;96.30;;;;;;5064012;28;20465;-84
2023/10/12 01:22:27;;;;;;;1.47;0.90;;;20.30;96.30;;;;;;5035345;28;20485;-84
2023/10/12 01:25:11;;;;;;;1.50;0.90;;;20.30;96.30;;;;;;5061707;28;20568;-84
2023/10/12 01:27:41;;;;;;;1.50;0.90;;;20.30;96.20;;;;;;5038374;28;20491;-82
2023/10/12 01:30:16;;;;;;;1.50;0.90;;;20.20;96.10;;;;;;5063325;28;20485;-82
2023/10/12 01:32:43;;;;;;;1.50;0.90;;;20.20;96.10;;;;;;5041779;28;20486;-82
2023/10/12 01:35:12;;;;;;;1.43;0.90;;;20.20;96.10;;;;;;5062622;28;20458;-82
2023/10/12 01:37:47;;;;;;;1.50;1.00;;;20.20;96.20;;;;;;5051339;28;20485;-84
2023/10/12 01:40:17;;;;;;;1.50;0.90;;;20.20;96.70;;;;;;5068122;28;20492;-82
2023/10/12 01:42:49;;;;;;;1.50;1.27;;;20.10;97.30;;;;;;5047100;28;20487;-82
2023/10/12 01:45:19;;;;;;;1.43;0.90;;;20.10;98.00;;;;;;5060536;28;20462;-81
2023/10/12 01:47:50;;;;;;;1.43;0.90;;;20.00;98.10;;;;;;5050764;28;20481;-82
2023/10/12 01:50:17;;;;;;;1.47;0.90;;;20.00;97.80;;;;;;5063116;28;20462;-82
2023/10/12 01:52:47;;;;;;;1.47;0.90;;;19.90;97.80;;;;;;5041349;28;20485;-83
2023/10/12 01:55:19;;;;;;;1.50;0.90;;;19.90;98.00;;;;;;5069761;28;20454;-85
2023/10/12 01:57:53;;;;;;;1.50;0.90;;;19.80;98.20;;;;;;5041948;28;20495;-83
2023/10/12 02:00:25;;;;;;;1.50;0.90;;;19.80;98.20;;;;;;5067977;28;20483;-82
2023/10/12 02:03:11;;;;;;;1.50;1.00;;;19.80;98.20;;;;;;5048297;28;20485;-82
2023/10/12 02:05:39;;;;;;;1.43;0.87;;;19.70;98.20;;;;;;5054972;28;20462;-81
2023/10/12 02:08:07;;;;;;;1.50;1.00;;;19.70;98.20;;;;;;5027801;28;20569;-80
2023/10/12 02:10:43;;;;;;;1.47;0.90;;;19.60;98.20;;;;;;5064655;28;20462;-80
2023/10/12 02:13:10;;;;;;;1.50;0.90;;;19.60;98.20;;;;;;5044902;28;21126;-80
2023/10/12 02:15:38;;;;;;;3.43;3.17;;;19.50;98.20;;;;;;5072197;22;20502;-76
2023/10/12 02:18:10;;;;;;;1.47;0.93;;;19.40;98.20;;;;;;5029246;28;20481;-76
2023/10/12 02:20:42;;;;;;;1.43;0.90;;;19.40;98.20;;;;;;5044043;28;20470;-76
2023/10/12 02:23:11;;;;;;;1.50;1.20;;;19.30;98.20;;;;;;5039491;28;20482;-76
2023/10/12 02:25:50;;;;;;;1.43;0.90;;;19.30;98.20;;;;;;5030773;28;20479;-76
2023/10/12 02:28:22;;;;;;;2.37;2.17;;;19.20;98.20;;;;;;5015201;28;20507;-76
2023/10/12 02:30:52;;;;;;;1.50;0.90;;;19.10;98.20;;;;;;5017299;28;20467;-76
2023/10/12 02:33:23;;;;;;;1.50;1.00;;;19.00;98.20;;;;;;5021394;28;20466;-76
2023/10/12 02:35:50;;;;;;;1.50;0.90;;;19.00;98.20;;;;;;5015737;28;20475;-75
2023/10/12 02:38:20;;;;;;;1.43;0.90;;;18.90;98.20;;;;;;5022882;28;20470;-75
2023/10/12 02:40:56;;;;;;;1.47;1.00;;;18.80;98.20;;;;;;5022874;28;20459;-76
2023/10/12 02:43:26;;;;;;;1.47;0.90;;;18.80;98.20;;;;;;5019139;28;20483;-76
2023/10/12 02:45:54;;;;;;;1.50;0.90;;;18.70;98.20;;;;;;5016673;28;20494;-76
2023/10/12 02:48:23;;;;;;;1.47;0.90;;;18.60;98.20;;;;;;5036252;28;20472;-76
2023/10/12 02:50:58;;;;;;;1.50;1.00;;;18.60;98.20;;;;;;5013860;28;20529;-75
2023/10/12 02:53:29;;;;;;;1.50;1.00;;;18.50;98.20;;;;;;5020360;28;20463;-77
2023/10/12 02:55:58;;;;;;;1.50;1.00;;;18.50;98.20;;;;;;5017038;28;20562;-76
2023/10/12 02:58:26;;;;;;;1.47;0.90;;;18.40;98.20;;;;;;5053234;28;20468;-77
2023/10/12 03:00:56;;;;;;;1.50;0.90;;;18.40;98.20;;;;;;5016813;28;20463;-76
2023/10/12 03:03:25;;;;;;;1.50;1.00;;;18.40;98.20;;;;;;5019647;28;20839;-76
2023/10/12 03:05:53;;;;;;;1.47;1.00;;;18.30;98.20;;;;;;5011926;28;20875;-75
2023/10/12 03:08:22;;;;;;;1.47;1.00;;;18.30;98.20;;;;;;5023902;28;20494;-76
2023/10/12 03:13:38;;;;;;;1.47;0.90;;;18.30;98.20;;;;;;5043978;28;20466;-76
2023/10/12 03:16:13;;;;;;;1.47;0.90;;;18.30;98.20;;;;;;5015885;28;20913;-76
2023/10/12 03:18:40;;;;;;;1.50;1.00;;;18.30;98.20;;;;;;5018495;28;20469;-76
2023/10/12 03:21:11;;;;;;;1.47;0.90;;;18.30;98.20;;;;;;5016179;28;20765;-76
2023/10/12 03:23:39;;;;;;;1.43;0.97;;;18.30;98.20;;;;;;5023011;28;20463;-76
2023/10/12 03:26:23;;;;;;;1.47;0.90;;;18.30;98.20;;;;;;5014817;28;20491;-76
2023/10/12 03:28:50;;;;;;;1.43;1.00;;;18.30;98.20;;;;;;5033490;28;20462;-76
2023/10/12 03:31:33;;;;;;;1.43;0.90;;;18.30;98.20;;;;;;5020728;28;20481;-75
2023/10/12 03:34:00;;;;;;;1.50;0.90;;;18.30;98.20;;;;;;5033211;28;20540;-75
2023/10/12 03:36:32;;;;;;;1.43;0.90;;;18.20;98.20;;;;;;5013066;28;20487;-75
2023/10/12 03:39:13;;;;;;;1.47;0.90;;;18.20;98.20;;;;;;5024565;28;20976;-76
2023/10/12 03:44:40;;;;;;;1.47;0.90;;;18.10;98.20;;;;;;5030142;28;20824;-78
2023/10/12 03:47:14;;;;;;;1.47;0.90;;;18.10;98.20;;;;;;5026312;28;20510;-77
2023/10/12 03:49:57;;;;;;;1.43;0.90;;;18.10;98.20;;;;;;5032396;28;20549;-78
2023/10/12 03:52:28;;;;;;;1.50;0.97;;;18.10;98.20;;;;;;5032464;28;20466;-78
2023/10/12 03:55:09;;;;;;;1.50;1.00;;;18.10;98.20;;;;;;5026911;28;20504;-78
2023/10/12 03:57:44;;;;;;;1.47;0.90;;;18.10;98.20;;;;;;5036573;28;20572;-78
2023/10/12 04:00:25;;;;;;;1.47;0.90;;;18.00;98.20;;;;;;5027193;28;20459;-78
2023/10/12 04:02:58;;;;;;;1.47;0.90;;;18.00;98.20;;;;;;5029106;28;20496;-78
2023/10/12 04:05:46;;;;;;;1.50;0.90;;;18.00;98.20;;;;;;5024036;28;20471;-78
2023/10/12 04:08:38;;;;;;;1.50;1.00;;;18.00;98.20;;;;;;5016608;28;20479;-77
2023/10/12 04:14:11;;;;;;;1.47;1.00;;;17.80;98.20;;;;;;5035851;28;20613;-77
2023/10/12 04:16:45;;;;;;;1.40;0.90;;;17.80;98.20;;;;;;5022581;28;20481;-78
2023/10/12 04:19:15;;;;;;;1.47;0.90;;;17.80;98.20;;;;;;5037420;28;20574;-74
2023/10/12 04:21:57;;;;;;;1.47;1.00;;;17.80;98.20;;;;;;5026935;28;20474;-78
2023/10/12 04:24:42;;;;;;;1.50;0.90;;;17.80;98.20;;;;;;5035133;28;20490;-77
2023/10/12 04:27:38;;;;;;;1.43;0.97;;;17.80;98.20;;;;;;5027732;28;20486;-78
2023/10/12 04:30:20;;;;;;;1.50;1.00;;;17.80;98.20;;;;;;5029810;28;20463;-77
2023/10/12 04:32:57;;;;;;;2.27;2.07;;;17.80;98.20;;;;;;5028855;28;20593;-75
2023/10/12 04:35:43;;;;;;;1.50;1.00;;;17.80;98.20;;;;;;5026593;28;21032;-77
2023/10/12 04:38:23;;;;;;;1.47;0.90;;;17.80;98.20;;;;;;5027601;28;20483;-77
2023/10/12 04:43:31;;;;;;;1.47;0.90;;;17.70;98.20;;;;;;5010177;28;20464;-74
2023/10/12 04:46:26;;;;;;;1.47;1.00;;;17.70;98.20;;;;;;5009834;28;20483;-75
2023/10/12 04:49:03;;;;;;;1.50;1.00;;;17.70;98.20;;;;;;5018378;28;20467;-74
2023/10/12 04:51:30;;;;;;;1.50;0.97;;;17.70;98.20;;;;;;5019816;28;20458;-74
2023/10/12 04:54:04;;;;;;;1.50;0.90;;;17.70;98.20;;;;;;5035064;28;20546;-74
2023/10/12 04:56:36;;;;;;;1.47;0.93;;;17.70;98.20;;;;;;5010237;28;20797;-75
2023/10/12 04:59:15;;;;;;;1.47;1.00;;;17.70;98.20;;;;;;5020691;28;20463;-74
2023/10/12 05:02:06;;;;;;;1.50;1.00;;;17.70;98.20;;;;;;5011990;28;20479;-74
2023/10/12 05:04:36;;;;;;;1.43;0.93;;;17.70;98.20;;;;;;5023904;28;20447;-75
2023/10/12 05:07:27;;;;;;;1.47;1.00;;;17.60;98.20;;;;;;5021598;28;20890;-75
2023/10/12 05:09:53;;;;;;;1.43;0.90;;;17.60;98.20;;;;;;5027874;28;20576;-74
2023/10/12 05:12:23;;;;;;;1.47;1.00;;;17.60;98.20;;;;;;5006619;28;20502;-74
2023/10/12 05:14:55;;;;;;;1.47;0.90;;;17.60;98.20;;;;;;5023296;28;20849;-75
2023/10/12 05:17:23;;;;;;;1.50;1.10;;;17.60;98.20;;;;;;5009167;28;20511;-75
2023/10/12 05:19:52;;;;;;;1.47;1.00;;;17.60;98.20;;;;;;5023727;28;20472;-75
2023/10/12 05:22:19;;;;;;;1.47;1.00;;;17.60;98.20;;;;;;5009375;28;20479;-76
2023/10/12 05:24:47;;;;;;;1.50;0.90;;;17.60;98.20;;;;;;5020756;28;20466;-75
2023/10/12 05:27:23;;;;;;;1.47;0.90;;;17.50;98.20;;;;;;5026065;28;20471;-76
2023/10/12 05:29:52;;;;;;;1.50;0.90;;;17.50;98.20;;;;;;5030790;28;20465;-76
2023/10/12 05:32:24;;;;;;;1.50;1.00;;;17.40;98.20;;;;;;5029625;28;20474;-76
2023/10/12 05:34:53;;;;;;;1.50;0.90;;;17.40;98.20;;;;;;5030052;28;20894;-75
2023/10/12 05:37:26;;;;;;;1.50;1.00;;;17.40;98.20;;;;;;5027411;28;20905;-75
2023/10/12 05:39:55;;;;;;;1.43;0.90;;;17.40;98.20;;;;;;5030705;28;21039;-76
2023/10/12 05:42:23;;;;;;;1.50;1.00;;;17.40;98.20;;;;;;5030079;28;20466;-75
2023/10/12 05:44:51;;;;;;;1.43;0.90;;;17.40;98.20;;;;;;5030650;28;20862;-77
2023/10/12 05:47:20;;;;;;;1.93;1.57;;;17.40;98.20;;;;;;5028919;28;20505;-74
2023/10/12 05:49:49;;;;;;;1.50;0.90;;;17.40;98.20;;;;;;5032059;28;20467;-74
2023/10/12 05:52:18;;;;;;;1.43;1.00;;;17.40;98.20;;;;;;5012275;28;20541;-76
2023/10/12 05:54:45;;;;;;;1.50;0.90;;;17.40;98.20;;;;;;5026522;28;20535;-76
2023/10/12 05:57:19;;;;;;;1.47;0.97;;;17.40;98.20;;;;;;5028125;28;21020;-75
2023/10/12 05:59:46;;;;;;;1.47;1.00;;;17.40;98.20;;;;;;5030845;28;20876;-75
2023/10/12 06:02:13;;;;;;;1.40;0.90;;;17.40;98.20;;;;;;5030385;28;20486;-76
2023/10/12 06:04:41;;;;;;;1.83;1.57;;;17.40;98.20;;;;;;5030297;28;20473;-76
2023/10/12 06:07:08;;;;;;;1.47;1.00;;;17.40;98.20;;;;;;5028156;28;21023;-77
2023/10/12 06:09:37;;;;;;;1.47;0.90;;;17.40;98.20;;;;;;5029400;28;20879;-77
2023/10/12 06:12:07;;;;;;;1.47;0.90;;;17.40;98.20;;;;;;5026190;28;20513;-76
2023/10/12 06:14:34;;;;;;;1.47;1.00;;;17.40;98.20;;;;;;5030843;28;20491;-77
2023/10/12 06:17:03;;;;;;;1.47;1.00;;;17.40;98.20;;;;;;5021469;28;20489;-77
2023/10/12 06:19:34;;;;;;;1.50;0.93;;;17.40;98.20;;;;;;5034232;28;20516;-77
2023/10/12 06:22:13;;;;;;;1.47;0.90;;;17.40;98.20;;;;;;5026049;28;20501;-76
2023/10/12 06:24:41;;;;;;;1.40;0.90;;;17.40;98.20;;;;;;5031910;28;20517;-76
2023/10/12 06:27:22;;;;;;;1.43;0.90;;;17.30;98.20;;;;;;5024860;28;20481;-76
2023/10/12 06:29:50;;;;;;;1.47;0.90;;;17.30;98.20;;;;;;5028109;28;21017;-76
2023/10/12 06:32:18;;;;;;;1.43;0.90;;;17.30;98.20;;;;;;5025155;28;20482;-75
2023/10/12 06:34:46;;;;;;;1.50;1.00;;;17.30;98.20;;;;;;5028693;28;20501;-77
2023/10/12 06:37:49;;;;;;;1.50;0.90;;;17.30;98.20;;;;;;5027148;28;20470;-78
2023/10/12 06:40:37;;;;;;;1.47;1.00;;;17.30;98.20;;;;;;5027668;28;20455;-76
2023/10/12 06:46:03;;;;;;;1.50;0.90;;;17.30;98.20;;;;;;5015479;28;20546;-78
2023/10/12 06:48:47;;;;;;;1.40;1.00;;;17.30;98.20;;;;;;5051100;28;20467;-77
2023/10/12 06:51:13;;;;;;;1.50;0.90;;;17.30;98.20;;;;;;5021839;28;20462;-76
2023/10/12 06:53:41;;;;;;;1.50;1.00;;;17.40;98.20;;;;;;5046622;28;20992;-80
2023/10/12 06:56:24;;;;;;;1.50;0.90;;;17.30;98.20;;;;;;5021174;28;20484;-77
2023/10/12 07:01:39;;;;;;;1.47;1.00;;;17.30;98.20;;;;;;5025103;28;20470;-77
2023/10/12 07:04:12;;;;;;;1.50;0.93;;;17.30;98.20;;;;;;5036614;28;20545;-77
2023/10/12 07:06:40;;;;;;;1.50;1.00;;;17.30;98.20;;;;;;5029212;28;20951;-76
2023/10/12 07:09:07;;;;;;;1.43;0.90;;;17.30;98.20;;;;;;5043176;28;20483;-79
2023/10/12 07:11:39;;;;;;;1.50;1.00;;;17.30;98.20;;;;;;5023832;28;20478;-78
2023/10/12 07:14:06;;;;;;;1.43;0.90;;;17.30;98.20;;;;;;5036550;28;20550;-77
2023/10/12 07:16:36;;;;;;;1.47;1.00;;;17.30;98.20;;;;;;5025130;28;20492;-77
2023/10/12 07:19:05;;;;;;;1.47;0.97;;;17.30;98.20;;;;;;5045556;28;20459;-76
2023/10/12 07:21:31;;;;;;;1.50;1.00;;;17.30;98.20;;;;;;5027163;28;20878;-78
2023/10/12 07:24:01;;;;;;;1.47;0.90;;;17.30;98.20;;;;;;5044456;28;20467;-77
2023/10/12 07:26:30;;;;;;;1.50;1.00;;;17.30;98.20;;;;;;5024932;28;20489;-77
2023/10/12 07:29:07;;;;;;;1.40;0.90;;;17.40;98.20;;;;;;5047193;28;20485;-76
2023/10/12 07:31:42;;;;;;;3.10;2.53;;;17.40;98.20;;;;;;5023633;28;20531;-77
2023/10/12 07:34:14;;;;;;;1.50;0.90;;;17.40;98.20;;;;;;5036226;28;20465;-77
2023/10/12 07:36:57;;;;;;;1.47;0.90;;;17.40;98.20;;;;;;5020805;28;21009;-77
2023/10/12 07:39:37;;;;;;;1.43;0.97;;;17.40;98.20;;;;;;5032322;28;20506;-76
2023/10/12 07:42:05;;;;;;;1.47;0.90;;;17.40;98.20;;;;;;5024627;28;20482;-76
2023/10/12 07:44:39;;;;;;;1.50;1.00;;;17.40;98.20;;;;;;5032300;28;20467;-77
2023/10/12 07:47:14;;;;;;;1.50;1.10;;;17.40;98.20;;;;;;5015318;28;20467;-78
2023/10/12 07:49:48;;;;;;;1.50;1.00;;;17.40;98.20;;;;;;5024108;28;20459;-76
2023/10/12 07:52:22;;;;;;;1.43;0.90;;;17.40;98.20;;;;;;5026352;28;20510;-78
2023/10/12 07:54:57;;;;;;;1.47;0.90;;;17.40;98.20;;;;;;5030342;28;20481;-78
2023/10/12 07:57:29;;;;;;;1.50;1.00;;;17.40;98.20;;;;;;5027335;28;20477;-78
2023/10/12 08:00:29;;;;;;;1.47;0.90;;;17.40;98.20;;;;;;5029649;28;20463;-77
2023/10/12 08:03:17;;;;;;;1.43;0.90;;;17.40;98.20;;;;;;5031306;28;20593;-77
2023/10/12 08:05:45;;;;;;;1.47;1.00;;;17.50;98.20;;;;;;5024711;28;20547;-78
2023/10/12 08:08:33;;;;;;;1.50;0.90;;;17.60;98.20;;;;;;5014046;28;20952;-77
2023/10/12 08:11:01;;;;;;;1.50;0.90;;;17.60;98.20;;;;;;5017113;28;20463;-77
2023/10/12 08:13:27;;;;;;;1.50;1.20;;;17.60;98.20;;;;;;5035692;28;20555;-77
2023/10/12 08:15:58;;;;;;;1.43;0.90;;;17.60;98.20;;;;;;5015921;28;20524;-80
2023/10/12 08:21:23;;;;;;;1.50;1.00;;;17.60;98.20;;;;;;5032747;22;20931;-78
2023/10/12 08:24:04;;;;;;;1.50;1.00;;;17.70;98.20;;;;;;5033937;28;20801;-77
2023/10/12 08:26:49;;;;;;;1.50;0.90;;;17.70;98.20;;;;;;5031061;28;20478;-80
2023/10/12 08:29:59;;;;;;;1.50;1.00;;;17.70;98.20;;;;;;5039928;28;20465;-81
2023/10/12 08:32:15;;;;;;;1.50;0.90;;;17.70;98.20;;;;;;5028280;28;20483;-80
2023/10/12 08:37:27;;;;;;;1.47;0.90;;;17.70;98.20;;;;;;5021545;28;20504;-80
2023/10/12 08:40:01;;;;;;;1.47;1.00;;;17.70;98.20;;;;;;5029704;28;20470;-79
2023/10/12 08:42:39;;;;;;;1.50;0.90;;;17.80;98.20;;;;;;5021291;28;20474;-77
2023/10/12 08:45:09;;;;;;;1.50;1.00;;;17.80;98.20;;;;;;5029126;28;20482;-78
2023/10/12 08:47:44;;;;;;;1.43;0.90;;;17.80;98.20;;;;;;5022112;28;20494;-78
2023/10/12 08:50:47;;;;;;;1.50;1.00;;;17.90;98.20;;;;;;5028059;28;20463;-77
2023/10/12 08:53:18;;;;;;;1.50;0.90;;;17.90;98.20;;;;;;5005276;28;21032;-78
2023/10/12 08:55:47;;;;;;;1.50;0.90;;;18.00;98.20;;;;;;5028494;28;20490;-78
2023/10/12 08:58:30;;;;;;;1.47;0.90;;;18.10;98.20;;;;;;5002597;28;20474;-78
2023/10/12 09:01:08;;;;;;;1.47;0.97;;;18.10;98.20;;;;;;5019350;28;20535;-77
2023/10/12 09:03:44;;;;;;;1.40;0.90;;;18.10;98.20;;;;;;5033608;28;20471;-79
2023/10/12 09:08:56;;;;;;;1.47;1.00;;;18.20;98.20;;;;;;5035772;28;20453;-80
2023/10/12 09:11:29;;;;;;;1.50;1.00;;;18.30;98.20;;;;;;5028337;28;20485;-79
2023/10/12 09:13:58;;;;;;;1.43;0.90;;;18.30;98.20;;;;;;5035948;28;20471;-79
2023/10/12 09:16:26;;;;;;;1.43;0.90;;;18.40;98.20;;;;;;5023502;28;20482;-79
2023/10/12 09:18:59;;;;;;;1.50;0.90;;;18.40;98.20;;;;;;5040020;28;20467;-79
2023/10/12 09:21:38;;;;;;;1.50;0.90;;;18.50;98.20;;;;;;5022762;28;20495;-78
2023/10/12 09:24:07;;;;;;;1.50;0.90;;;18.50;98.20;;;;;;5033860;28;20470;-78
2023/10/12 09:26:37;;;;;;;1.50;0.90;;;18.60;98.20;;;;;;5023447;28;20475;-78
2023/10/12 09:29:12;;;;;;;1.50;0.90;;;18.70;98.20;;;;;;5041908;28;20455;-79
2023/10/12 09:31:53;;;;;;;1.70;1.57;;;18.70;98.20;;;;;;5023310;28;21003;-77
2023/10/12 09:34:42;;;;;;;1.50;0.90;;;18.80;98.20;;;;;;5038800;28;20884;-79
2023/10/12 09:37:16;;;;;;;1.47;0.90;;;18.80;98.20;;;;;;5024699;28;20489;-78
2023/10/12 09:39:45;;;;;;;1.50;0.90;;;18.90;98.20;;;;;;5035881;28;20473;-78
2023/10/12 09:42:22;;;;;;;1.50;0.97;;;19.00;98.20;;;;;;5013898;28;20775;-77
2023/10/12 09:44:53;;;;;;;2.23;1.73;;;19.10;98.20;;;;;;5021513;28;20478;-78
2023/10/12 09:47:25;;;;;;;1.50;0.90;;;19.20;98.20;;;;;;5021871;28;20482;-77
2023/10/12 09:50:00;;;;;;;1.50;0.90;;;19.20;98.20;;;;;;5027377;28;20591;-78
2023/10/12 09:52:46;;;;;;;1.50;0.90;;;19.30;98.20;;;;;;5009313;28;20487;-78
2023/10/12 09:55:15;;;;;;;1.50;0.90;;;19.40;98.20;;;;;;5027516;28;20459;-76
2023/10/12 09:57:49;;;;;;;1.47;0.90;;;19.40;98.20;;;;;;5018099;28;20489;-78
2023/10/12 10:00:28;;;;;;;1.50;1.00;;;19.40;98.20;;;;;;5029773;28;20463;-78
2023/10/12 10:03:02;;;;;;;1.50;0.90;;;19.40;98.20;;;;;;5012627;28;20484;-78
2023/10/12 10:08:18;;;;;;;1.50;0.90;;;19.60;98.20;;;;;;5003782;28;20478;-76
2023/10/12 10:10:45;;;;;;;1.50;0.90;;;19.60;98.20;;;;;;5026800;28;20536;-77
2023/10/12 10:13:39;;;;;;;1.47;0.90;;;19.70;98.20;;;;;;5000181;28;20478;-76
2023/10/12 10:16:09;;;;;;;1.50;0.90;;;19.80;98.20;;;;;;5016529;28;20556;-77
2023/10/12 10:18:46;;;;;;;1.50;0.90;;;19.80;98.20;;;;;;5024808;28;20498;-76
2023/10/12 10:21:19;;;;;;;1.50;0.90;;;20.00;98.20;;;;;;5012001;28;20499;-76
2023/10/12 10:23:49;;;;;;;1.50;0.90;;;20.10;98.20;;;;;;5021326;28;20538;-76
2023/10/12 10:26:23;;;;;;;1.47;0.90;;;20.20;98.20;;;;;;5013569;28;20976;-76
2023/10/12 10:28:58;;;;;;;1.50;0.90;;;20.30;98.20;;;;;;5024275;28;20474;-76
2023/10/12 10:31:28;;;;;;;1.50;0.90;;;20.40;98.20;;;;;;5017665;28;20498;-75
2023/10/12 10:33:58;;;;;;;1.50;0.90;;;20.50;98.20;;;;;;5028005;28;20491;-78
2023/10/12 10:36:34;;;;;;;1.60;1.10;;;20.60;98.20;;;;;;5016828;28;20498;-75
2023/10/12 10:39:09;;;;;;;1.50;0.90;;;20.60;98.20;;;;;;5024731;28;20554;-77
2023/10/12 10:41:45;;;;;;;1.50;0.90;;;20.70;98.20;;;;;;5017732;28;20486;-77
2023/10/12 10:44:15;;;;;;;1.50;0.90;;;20.80;98.20;;;;;;5021802;28;20585;-77
2023/10/12 10:46:45;;;;;;;1.50;0.90;;;20.90;98.20;;;;;;5014924;28;20847;-77
2023/10/12 10:49:16;;;;;;;1.50;0.90;;;21.00;98.20;;;;;;5023485;28;20466;-77
2023/10/12 10:51:47;;;;;;;1.40;0.90;;;21.00;98.20;;;;;;5006010;28;20495;-77
2023/10/12 10:54:19;;;;;;;1.50;0.90;;;21.00;98.20;;;;;;5015699;28;20463;-77
2023/10/12 10:56:47;;;;;;;1.47;0.90;;;21.10;98.20;;;;;;5014507;28;21035;-77
2023/10/12 10:59:18;;;;;;;1.50;0.90;;;21.10;98.20;;;;;;5026560;28;20525;-75
2023/10/12 11:01:48;;;;;;;1.43;0.90;;;21.10;98.20;;;;;;5003464;28;20960;-75
2023/10/12 11:04:36;;;;;;;1.50;1.00;;;21.10;98.20;;;;;;5016018;28;20958;-77
2023/10/12 11:07:11;;;;;;;1.50;0.90;;;21.10;98.20;;;;;;5019499;28;20482;-77
2023/10/12 11:10:05;;;;;;;1.43;0.90;;;21.10;98.20;;;;;;5026394;28;20459;-78
2023/10/12 11:12:32;;;;;;;1.50;0.90;;;21.10;98.20;;;;;;4992392;28;20523;-77
2023/10/12 11:15:01;;;;;;;1.50;0.90;;;21.10;98.20;;;;;;5020575;28;20478;-77
2023/10/12 11:17:30;;;;;;;1.50;0.90;;;21.10;98.20;;;;;;5010107;28;21000;-76
2023/10/12 11:19:58;;;;;;;1.47;0.90;;;21.10;98.20;;;;;;5021658;28;21048;-77
2023/10/12 11:22:26;;;;;;;1.47;0.90;;;21.10;98.20;;;;;;5004178;28;20495;-77
2023/10/12 11:24:54;;;;;;;1.47;0.90;;;21.10;98.20;;;;;;5018792;28;20546;-76
2023/10/12 11:27:32;;;;;;;1.50;0.87;;;21.00;98.20;;;;;;5007882;28;20511;-77
2023/10/12 11:30:06;;;;;;;1.50;0.90;;;21.00;98.20;;;;;;5020858;28;20498;-78
2023/10/12 11:32:51;;;;;;;2.83;2.60;;;21.10;98.20;;;;;;5018008;28;20551;-78
2023/10/12 11:35:18;;;;;;;1.50;0.90;;;21.10;98.20;;;;;;5022287;28;20467;-78
2023/10/12 11:37:46;;;;;;;1.47;0.90;;;21.20;98.20;;;;;;5020820;28;20581;-77
2023/10/12 11:40:28;;;;;;;1.40;0.90;;;21.20;98.20;;;;;;5024218;28;20460;-79
2023/10/12 11:42:56;;;;;;;1.50;0.90;;;21.20;98.20;;;;;;5016749;28;20483;-77
2023/10/12 11:45:26;;;;;;;1.50;0.90;;;21.20;98.20;;;;;;5025216;28;20459;-79
2023/10/12 11:47:52;;;;;;;1.47;0.90;;;21.30;98.20;;;;;;5013488;28;20534;-78
2023/10/12 11:50:31;;;;;;;1.47;0.90;;;21.30;98.20;;;;;;5025039;28;20478;-76
2023/10/12 11:53:02;;;;;;;1.50;0.90;;;21.30;98.20;;;;;;5012449;28;20482;-76
2023/10/12 11:55:31;;;;;;;1.47;0.90;;;21.30;98.20;;;;;;5019411;28;20879;-76
2023/10/12 11:57:59;;;;;;;1.47;0.90;;;21.40;98.20;;;;;;5003745;28;20499;-76
2023/10/12 12:00:29;;;;;;;1.50;0.90;;;21.40;98.20;;;;;;5021413;28;20925;-77
2023/10/12 12:02:59;;;;;;;1.47;0.87;;;21.40;98.20;;;;;;5009105;28;20507;-77
2023/10/12 12:05:29;;;;;;;1.50;1.00;;;21.30;98.20;;;;;;5021246;28;20578;-77
2023/10/12 12:07:58;;;;;;;1.50;0.90;;;21.30;98.20;;;;;;5009541;28;20484;-77
2023/10/12 12:10:37;;;;;;;1.50;0.90;;;21.30;98.20;;;;;;5025267;28;20502;-76
2023/10/12 12:13:08;;;;;;;1.43;0.90;;;21.30;98.20;;;;;;5008966;28;20579;-76
2023/10/12 12:15:35;;;;;;;1.50;0.90;;;21.30;98.20;;;;;;5022709;28;20463;-77
2023/10/12 12:18:04;;;;;;;1.50;0.90;;;21.30;98.20;;;;;;5010158;28;20483;-78
2023/10/12 12:20:38;;;;;;;1.47;0.90;;;21.30;98.20;;;;;;5025052;28;20463;-78
2023/10/12 12:23:05;;;;;;;1.50;0.90;;;21.30;98.20;;;;;;5011515;28;20478;-78
2023/10/12 12:25:38;;;;;;;1.50;0.90;;;21.20;98.20;;;;;;5023048;28;20511;-78
2023/10/12 12:28:07;;;;;;;1.50;0.90;;;21.20;98.20;;;;;;4989361;28;20473;-76
2023/10/12 12:30:39;;;;;;;1.50;1.00;;;21.20;98.20;;;;;;5018308;28;20467;-76
2023/10/12 12:33:14;;;;;;;1.43;0.90;;;21.20;98.20;;;;;;5003664;28;20542;-78
2023/10/12 12:35:41;;;;;;;1.43;0.90;;;21.20;98.20;;;;;;5023760;28;20462;-78
2023/10/12 12:38:21;;;;;;;1.47;0.90;;;21.10;98.20;;;;;;5006261;28;20480;-78
2023/10/12 12:40:49;;;;;;;1.50;0.90;;;21.10;98.20;;;;;;5014452;28;20482;-79
2023/10/12 12:43:16;;;;;;;1.50;0.90;;;21.00;98.20;;;;;;5019679;28;20466;-78
2023/10/12 12:45:43;;;;;;;1.43;0.90;;;20.90;98.20;;;;;;5024628;28;20473;-78
2023/10/12 12:48:10;;;;;;;1.50;0.90;;;20.90;98.20;;;;;;5009318;28;20538;-78
2023/10/12 12:50:36;;;;;;;1.50;0.90;;;20.80;98.20;;;;;;5025189;28;20469;-79
2023/10/12 12:53:06;;;;;;;1.50;0.97;;;20.70;98.20;;;;;;5019369;28;20880;-78
2023/10/12 12:55:38;;;;;;;1.60;1.27;;;20.70;98.20;;;;;;5022749;28;20545;-75
2023/10/12 12:58:06;;;;;;;1.43;0.90;;;20.70;98.20;;;;;;5009546;28;20637;-75
2023/10/12 13:00:34;;;;;;;1.50;0.90;;;20.60;98.20;;;;;;5020673;28;20466;-75
2023/10/12 13:03:01;;;;;;;1.43;0.90;;;20.60;98.20;;;;;;5010903;28;20545;-75
2023/10/12 13:05:29;;;;;;;1.40;0.90;;;20.60;98.20;;;;;;5018844;28;20456;-75
2023/10/12 13:07:56;;;;;;;1.43;0.90;;;20.60;98.20;;;;;;5004907;28;21003;-76
2023/10/12 13:10:25;;;;;;;1.50;0.90;;;20.60;98.20;;;;;;5022892;28;20528;-76
2023/10/12 13:12:52;;;;;;;1.50;0.90;;;20.60;98.20;;;;;;5005833;28;20484;-76
2023/10/12 13:15:21;;;;;;;1.43;0.90;;;20.60;98.20;;;;;;5024179;28;20498;-77
2023/10/12 13:17:48;;;;;;;1.43;0.90;;;20.60;98.20;;;;;;5019098;28;20964;-78
2023/10/12 13:20:21;;;;;;;1.50;0.90;;;20.50;98.20;;;;;;5021945;28;20464;-75
2023/10/12 13:22:48;;;;;;;1.50;0.90;;;20.50;98.20;;;;;;5007661;28;20492;-76
2023/10/12 13:25:18;;;;;;;1.47;0.93;;;20.50;98.20;;;;;;5022500;28;20485;-76
2023/10/12 13:27:46;;;;;;;1.43;0.90;;;20.50;98.20;;;;;;5008835;28;20821;-76
2023/10/12 13:30:14;;;;;;;1.43;0.90;;;20.50;98.20;;;;;;5021443;28;20463;-76
2023/10/12 13:32:43;;;;;;;1.50;0.90;;;20.50;98.20;;;;;;5015698;28;20486;-79
2023/10/12 13:35:28;;;;;;;1.43;0.90;;;20.50;98.20;;;;;;5022665;28;20463;-78
2023/10/12 13:37:56;;;;;;;1.43;0.90;;;20.50;98.20;;;;;;4988164;28;20480;-78
2023/10/12 13:40:25;;;;;;;1.50;0.90;;;20.50;98.20;;;;;;5021112;28;20791;-78
2023/10/12 13:42:51;;;;;;;1.43;0.90;;;20.50;98.20;;;;;;5013781;28;20574;-78
2023/10/12 13:45:20;;;;;;;1.50;0.90;;;20.50;98.20;;;;;;5025488;28;20474;-77